Bergoo, West Virginia
Current Conditions -  °F | °C
As of 7:55 AM on Wednesday 26 Nov 2014 (Local Time) from KW22 Reporting Station
Light Rain Light Rain  
Wind Chill: 32°   Ceiling: 1600
Heat Index: 32°   Visibility: 4mi
Dew Point: 30°   Wind: 0mph
Humidity: 93%   Direction: NA
Pressure: 30"   Gusts: NA
Location:  38.49°N, 80.3°W
Report Text: KW22 261255Z AUTO 00000KT 4SM -RA OVC016 00/M01 A3000 RMK AO2
Loading
Personal Weather Stations






























Interactive Weather Map New forecast layout! Learn more

10-Day Weather Forecast

Advertisements
Track Severe Weather on mobile